sensor_id;sensor_type;location;lat;lon;timestamp;P1;durP1;ratioP1;P2;durP2;ratioP2
18647;SDS011;9453;50.294;18.644;2023-06-14T04:02:21;24.17;;;9.10;;
18647;SDS011;9453;50.294;18.644;2023-06-14T04:04:56;20.83;;;8.60;;
18647;SDS011;9453;50.294;18.644;2023-06-14T04:07:24;15.93;;;7.97;;
18647;SDS011;9453;50.294;18.644;2023-06-14T04:09:53;21.37;;;9.07;;
18647;SDS011;9453;50.294;18.644;2023-06-14T04:12:20;17.73;;;7.73;;
18647;SDS011;9453;50.294;18.644;2023-06-14T04:14:47;15.67;;;7.90;;
18647;SDS011;9453;50.294;18.644;2023-06-14T04:17:14;18.63;;;8.77;;
18647;SDS011;9453;50.294;18.644;2023-06-14T04:19:43;17.93;;;8.17;;
18647;SDS011;9453;50.294;18.644;2023-06-14T04:22:10;20.50;;;9.67;;
18647;SDS011;9453;50.294;18.644;2023-06-14T04:24:38;18.23;;;9.00;;
18647;SDS011;9453;50.294;18.644;2023-06-14T04:27:07;22.70;;;8.73;;
18647;SDS011;9453;50.294;18.644;2023-06-14T04:29:34;21.57;;;9.47;;
18647;SDS011;9453;50.294;18.644;2023-06-14T04:32:01;23.23;;;8.20;;
18647;SDS011;9453;50.294;18.644;2023-06-14T04:34:29;19.90;;;9.40;;
18647;SDS011;9453;50.294;18.644;2023-06-14T04:36:59;22.13;;;8.93;;
18647;SDS011;9453;50.294;18.644;2023-06-14T04:39:26;17.43;;;8.00;;
18647;SDS011;9453;50.294;18.644;2023-06-14T04:41:53;19.42;;;8.50;;
18647;SDS011;9453;50.294;18.644;2023-06-14T04:44:22;19.27;;;9.00;;
18647;SDS011;9453;50.294;18.644;2023-06-14T04:46:55;23.77;;;9.33;;
18647;SDS011;9453;50.294;18.644;2023-06-14T04:49:24;24.80;;;9.20;;
18647;SDS011;9453;50.294;18.644;2023-06-14T04:51:52;22.97;;;9.33;;
18647;SDS011;9453;50.294;18.644;2023-06-14T04:54:23;19.67;;;8.85;;
18647;SDS011;9453;50.294;18.644;2023-06-14T04:56:50;25.40;;;10.70;;
18647;SDS011;9453;50.294;18.644;2023-06-14T04:59:18;26.88;;;9.77;;
18647;SDS011;9453;50.294;18.644;2023-06-14T05:01:45;21.33;;;10.00;;
18647;SDS011;9453;50.294;18.644;2023-06-14T05:04:13;26.77;;;9.82;;
18647;SDS011;9453;50.294;18.644;2023-06-14T05:06:40;28.67;;;10.07;;
18647;SDS011;9453;50.294;18.644;2023-06-14T05:09:09;29.00;;;10.63;;
18647;SDS011;9453;50.294;18.644;2023-06-14T05:11:38;25.30;;;10.30;;
18647;SDS011;9453;50.294;18.644;2023-06-14T05:14:05;24.45;;;10.38;;
18647;SDS011;9453;50.294;18.644;2023-06-14T05:16:32;22.63;;;9.53;;
18647;SDS011;9453;50.294;18.644;2023-06-14T05:18:59;20.03;;;9.57;;
18647;SDS011;9453;50.294;18.644;2023-06-14T05:21:26;22.90;;;10.60;;
18647;SDS011;9453;50.294;18.644;2023-06-14T05:23:53;26.40;;;10.68;;
18647;SDS011;9453;50.294;18.644;2023-06-14T05:26:20;25.37;;;11.00;;
18647;SDS011;9453;50.294;18.644;2023-06-14T05:28:51;30.65;;;11.35;;
18647;SDS011;9453;50.294;18.644;2023-06-14T05:34:17;27.73;;;11.07;;
18647;SDS011;9453;50.294;18.644;2023-06-14T05:36:45;29.43;;;11.77;;
18647;SDS011;9453;50.294;18.644;2023-06-14T05:39:11;26.27;;;12.35;;
18647;SDS011;9453;50.294;18.644;2023-06-14T05:41:39;23.25;;;10.90;;
18647;SDS011;9453;50.294;18.644;2023-06-14T05:44:08;22.98;;;10.68;;
18647;SDS011;9453;50.294;18.644;2023-06-14T05:46:35;27.70;;;12.43;;
18647;SDS011;9453;50.294;18.644;2023-06-14T05:49:05;25.27;;;11.85;;
18647;SDS011;9453;50.294;18.644;2023-06-14T05:51:32;19.73;;;9.48;;
18647;SDS011;9453;50.294;18.644;2023-06-14T05:53:59;19.35;;;9.38;;
18647;SDS011;9453;50.294;18.644;2023-06-14T05:56:26;16.30;;;8.10;;
18647;SDS011;9453;50.294;18.644;2023-06-14T05:58:53;19.73;;;9.13;;
18647;SDS011;9453;50.294;18.644;2023-06-14T06:01:21;19.60;;;10.05;;
18647;SDS011;9453;50.294;18.644;2023-06-14T06:03:48;16.48;;;8.80;;
18647;SDS011;9453;50.294;18.644;2023-06-14T06:06:15;20.92;;;10.77;;
18647;SDS011;9453;50.294;18.644;2023-06-14T06:08:42;17.45;;;9.13;;
18647;SDS011;9453;50.294;18.644;2023-06-14T06:11:09;19.55;;;9.10;;
18647;SDS011;9453;50.294;18.644;2023-06-14T06:13:37;18.63;;;8.90;;
18647;SDS011;9453;50.294;18.644;2023-06-14T06:16:05;18.25;;;9.13;;
18647;SDS011;9453;50.294;18.644;2023-06-14T06:18:34;17.70;;;9.38;;
18647;SDS011;9453;50.294;18.644;2023-06-14T06:21:01;19.98;;;9.80;;
18647;SDS011;9453;50.294;18.644;2023-06-14T06:23:29;17.20;;;9.13;;
18647;SDS011;9453;50.294;18.644;2023-06-14T06:25:56;15.32;;;7.88;;
18647;SDS011;9453;50.294;18.644;2023-06-14T06:28:23;20.10;;;9.52;;
18647;SDS011;9453;50.294;18.644;2023-06-14T06:30:50;14.43;;;8.43;;
18647;SDS011;9453;50.294;18.644;2023-06-14T06:33:18;19.50;;;9.48;;
18647;SDS011;9453;50.294;18.644;2023-06-14T06:35:46;17.85;;;9.57;;
18647;SDS011;9453;50.294;18.644;2023-06-14T06:38:13;18.88;;;10.18;;
18647;SDS011;9453;50.294;18.644;2023-06-14T06:40:40;18.23;;;8.77;;
18647;SDS011;9453;50.294;18.644;2023-06-14T06:43:07;17.73;;;8.93;;
18647;SDS011;9453;50.294;18.644;2023-06-14T06:45:34;16.52;;;9.30;;
18647;SDS011;9453;50.294;18.644;2023-06-14T06:48:01;15.07;;;8.32;;
18647;SDS011;9453;50.294;18.644;2023-06-14T06:50:28;14.23;;;7.88;;
18647;SDS011;9453;50.294;18.644;2023-06-14T06:52:56;11.65;;;6.60;;
18647;SDS011;9453;50.294;18.644;2023-06-14T06:55:23;10.73;;;6.35;;
18647;SDS011;9453;50.294;18.644;2023-06-14T06:58:12;14.95;;;8.50;;
18647;SDS011;9453;50.294;18.644;2023-06-14T07:00:43;15.70;;;8.10;;
18647;SDS011;9453;50.294;18.644;2023-06-14T07:03:10;12.65;;;7.45;;
18647;SDS011;9453;50.294;18.644;2023-06-14T07:05:39;19.63;;;8.73;;
18647;SDS011;9453;50.294;18.644;2023-06-14T07:08:07;19.33;;;8.75;;
18647;SDS011;9453;50.294;18.644;2023-06-14T07:10:34;17.70;;;8.73;;
18647;SDS011;9453;50.294;18.644;2023-06-14T07:13:02;13.00;;;7.88;;
18647;SDS011;9453;50.294;18.644;2023-06-14T07:15:30;19.20;;;9.05;;
18647;SDS011;9453;50.294;18.644;2023-06-14T07:17:57;17.38;;;8.07;;
18647;SDS011;9453;50.294;18.644;2023-06-14T07:20:24;11.35;;;6.80;;
18647;SDS011;9453;50.294;18.644;2023-06-14T07:22:51;16.25;;;7.70;;
18647;SDS011;9453;50.294;18.644;2023-06-14T07:25:20;11.82;;;7.03;;
18647;SDS011;9453;50.294;18.644;2023-06-14T07:27:47;15.50;;;7.35;;
18647;SDS011;9453;50.294;18.644;2023-06-14T07:30:14;18.00;;;7.65;;
18647;SDS011;9453;50.294;18.644;2023-06-14T07:32:41;14.48;;;7.68;;
18647;SDS011;9453;50.294;18.644;2023-06-14T07:35:08;12.90;;;7.38;;
18647;SDS011;9453;50.294;18.644;2023-06-14T07:37:35;11.50;;;7.05;;
18647;SDS011;9453;50.294;18.644;2023-06-14T07:40:02;14.98;;;7.30;;
18647;SDS011;9453;50.294;18.644;2023-06-14T07:42:34;11.43;;;6.25;;
18647;SDS011;9453;50.294;18.644;2023-06-14T07:45:01;8.82;;;5.53;;
18647;SDS011;9453;50.294;18.644;2023-06-14T07:47:28;5.25;;;3.83;;
18647;SDS011;9453;50.294;18.644;2023-06-14T07:49:55;9.27;;;4.13;;
18647;SDS011;9453;50.294;18.644;2023-06-14T07:52:22;5.88;;;3.92;;
18647;SDS011;9453;50.294;18.644;2023-06-14T07:54:50;5.72;;;3.70;;
18647;SDS011;9453;50.294;18.644;2023-06-14T07:57:17;11.60;;;6.53;;
18647;SDS011;9453;50.294;18.644;2023-06-14T07:59:46;8.05;;;5.10;;
18647;SDS011;9453;50.294;18.644;2023-06-14T08:02:13;9.35;;;4.75;;
18647;SDS011;9453;50.294;18.644;2023-06-14T08:04:40;7.28;;;4.40;;
18647;SDS011;9453;50.294;18.644;2023-06-14T08:07:07;11.30;;;5.75;;
18647;SDS011;9453;50.294;18.644;2023-06-14T08:09:36;12.32;;;6.35;;
18647;SDS011;9453;50.294;18.644;2023-06-14T08:12:03;11.60;;;6.10;;
18647;SDS011;9453;50.294;18.644;2023-06-14T08:14:32;9.18;;;5.20;;
18647;SDS011;9453;50.294;18.644;2023-06-14T08:17:00;13.00;;;5.38;;
18647;SDS011;9453;50.294;18.644;2023-06-14T08:19:28;11.25;;;5.47;;
18647;SDS011;9453;50.294;18.644;2023-06-14T08:21:55;12.23;;;5.10;;
18647;SDS011;9453;50.294;18.644;2023-06-14T08:24:24;11.13;;;5.85;;
18647;SDS011;9453;50.294;18.644;2023-06-14T08:26:55;10.00;;;5.50;;
18647;SDS011;9453;50.294;18.644;2023-06-14T08:29:26;10.73;;;6.13;;
18647;SDS011;9453;50.294;18.644;2023-06-14T08:31:54;8.93;;;5.55;;
18647;SDS011;9453;50.294;18.644;2023-06-14T08:34:23;7.90;;;5.15;;
18647;SDS011;9453;50.294;18.644;2023-06-14T08:36:50;9.32;;;4.68;;
18647;SDS011;9453;50.294;18.644;2023-06-14T08:39:17;7.40;;;4.80;;
18647;SDS011;9453;50.294;18.644;2023-06-14T08:41:44;7.65;;;4.05;;
18647;SDS011;9453;50.294;18.644;2023-06-14T08:44:13;8.32;;;4.68;;
18647;SDS011;9453;50.294;18.644;2023-06-14T08:46:41;8.60;;;4.97;;
18647;SDS011;9453;50.294;18.644;2023-06-14T08:49:08;8.40;;;5.80;;
18647;SDS011;9453;50.294;18.644;2023-06-14T08:51:40;7.95;;;5.05;;
18647;SDS011;9453;50.294;18.644;2023-06-14T08:54:08;8.98;;;5.00;;
18647;SDS011;9453;50.294;18.644;2023-06-14T08:56:37;10.23;;;5.15;;
18647;SDS011;9453;50.294;18.644;2023-06-14T08:59:06;6.63;;;4.03;;
18647;SDS011;9453;50.294;18.644;2023-06-14T09:01:36;6.43;;;4.15;;
18647;SDS011;9453;50.294;18.644;2023-06-14T09:04:03;6.88;;;4.18;;
18647;SDS011;9453;50.294;18.644;2023-06-14T09:06:31;10.45;;;4.88;;
18647;SDS011;9453;50.294;18.644;2023-06-14T09:09:00;8.07;;;4.15;;
18647;SDS011;9453;50.294;18.644;2023-06-14T09:11:29;7.38;;;4.53;;
18647;SDS011;9453;50.294;18.644;2023-06-14T09:13:57;7.78;;;4.15;;
18647;SDS011;9453;50.294;18.644;2023-06-14T09:16:24;8.25;;;4.03;;
18647;SDS011;9453;50.294;18.644;2023-06-14T09:18:52;12.23;;;3.83;;
18647;SDS011;9453;50.294;18.644;2023-06-14T09:21:20;7.22;;;3.38;;
18647;SDS011;9453;50.294;18.644;2023-06-14T09:23:47;6.90;;;3.83;;
18647;SDS011;9453;50.294;18.644;2023-06-14T09:26:16;9.52;;;3.10;;
18647;SDS011;9453;50.294;18.644;2023-06-14T09:28:45;8.43;;;3.22;;
18647;SDS011;9453;50.294;18.644;2023-06-14T09:31:14;7.60;;;3.22;;
18647;SDS011;9453;50.294;18.644;2023-06-14T09:33:42;5.97;;;3.40;;
18647;SDS011;9453;50.294;18.644;2023-06-14T09:36:14;7.00;;;3.72;;
18647;SDS011;9453;50.294;18.644;2023-06-14T09:38:42;4.60;;;3.00;;
18647;SDS011;9453;50.294;18.644;2023-06-14T09:41:20;5.45;;;2.95;;
18647;SDS011;9453;50.294;18.644;2023-06-14T09:43:47;5.97;;;3.40;;
18647;SDS011;9453;50.294;18.644;2023-06-14T09:46:14;5.57;;;2.72;;
18647;SDS011;9453;50.294;18.644;2023-06-14T09:48:42;2.95;;;2.30;;
18647;SDS011;9453;50.294;18.644;2023-06-14T09:51:10;3.28;;;2.53;;
18647;SDS011;9453;50.294;18.644;2023-06-14T09:53:49;4.75;;;2.63;;
18647;SDS011;9453;50.294;18.644;2023-06-14T09:56:22;4.68;;;2.85;;
18647;SDS011;9453;50.294;18.644;2023-06-14T09:58:54;6.00;;;2.63;;
18647;SDS011;9453;50.294;18.644;2023-06-14T10:01:22;4.00;;;2.75;;
18647;SDS011;9453;50.294;18.644;2023-06-14T10:03:53;2.72;;;2.10;;
18647;SDS011;9453;50.294;18.644;2023-06-14T10:06:22;7.53;;;3.15;;
18647;SDS011;9453;50.294;18.644;2023-06-14T10:08:52;5.25;;;2.85;;
18647;SDS011;9453;50.294;18.644;2023-06-14T10:11:23;3.78;;;2.70;;
18647;SDS011;9453;50.294;18.644;2023-06-14T10:13:51;4.43;;;2.92;;
18647;SDS011;9453;50.294;18.644;2023-06-14T10:16:20;4.68;;;3.10;;
18647;SDS011;9453;50.294;18.644;2023-06-14T10:18:51;4.35;;;3.10;;
18647;SDS011;9453;50.294;18.644;2023-06-14T10:21:28;4.38;;;3.05;;
18647;SDS011;9453;50.294;18.644;2023-06-14T10:24:04;4.50;;;3.17;;
18647;SDS011;9453;50.294;18.644;2023-06-14T10:26:39;6.68;;;3.40;;
18647;SDS011;9453;50.294;18.644;2023-06-14T10:29:17;5.40;;;3.10;;
18647;SDS011;9453;50.294;18.644;2023-06-14T10:31:44;6.35;;;3.05;;
18647;SDS011;9453;50.294;18.644;2023-06-14T10:34:12;8.43;;;4.40;;
18647;SDS011;9453;50.294;18.644;2023-06-14T10:36:50;4.72;;;3.70;;
18647;SDS011;9453;50.294;18.644;2023-06-14T10:39:27;6.53;;;3.17;;
18647;SDS011;9453;50.294;18.644;2023-06-14T10:41:56;4.47;;;3.00;;
18647;SDS011;9453;50.294;18.644;2023-06-14T10:44:34;6.28;;;3.53;;
18647;SDS011;9453;50.294;18.644;2023-06-14T10:47:09;6.13;;;3.22;;
18647;SDS011;9453;50.294;18.644;2023-06-14T10:49:40;5.07;;;3.60;;
18647;SDS011;9453;50.294;18.644;2023-06-14T10:52:08;5.30;;;3.78;;
18647;SDS011;9453;50.294;18.644;2023-06-14T10:54:56;5.88;;;3.72;;
18647;SDS011;9453;50.294;18.644;2023-06-14T10:57:30;6.68;;;4.60;;
18647;SDS011;9453;50.294;18.644;2023-06-14T10:59:58;6.93;;;3.75;;
18647;SDS011;9453;50.294;18.644;2023-06-14T11:02:39;7.53;;;4.03;;
18647;SDS011;9453;50.294;18.644;2023-06-14T11:05:23;5.85;;;4.07;;
18647;SDS011;9453;50.294;18.644;2023-06-14T11:07:58;6.53;;;4.03;;
18647;SDS011;9453;50.294;18.644;2023-06-14T11:10:39;8.10;;;3.95;;
18647;SDS011;9453;50.294;18.644;2023-06-14T11:13:09;10.38;;;5.50;;
18647;SDS011;9453;50.294;18.644;2023-06-14T11:15:37;7.00;;;4.10;;
18647;SDS011;9453;50.294;18.644;2023-06-14T11:18:05;6.43;;;4.00;;
18647;SDS011;9453;50.294;18.644;2023-06-14T11:20:50;5.82;;;3.38;;
18647;SDS011;9453;50.294;18.644;2023-06-14T11:23:17;5.15;;;3.75;;
18647;SDS011;9453;50.294;18.644;2023-06-14T11:25:49;4.43;;;3.20;;
18647;SDS011;9453;50.294;18.644;2023-06-14T11:28:18;6.63;;;4.53;;
18647;SDS011;9453;50.294;18.644;2023-06-14T11:30:46;5.30;;;4.05;;
18647;SDS011;9453;50.294;18.644;2023-06-14T11:33:16;7.20;;;4.18;;
18647;SDS011;9453;50.294;18.644;2023-06-14T11:35:44;9.85;;;4.78;;
18647;SDS011;9453;50.294;18.644;2023-06-14T11:38:12;6.95;;;5.25;;
18647;SDS011;9453;50.294;18.644;2023-06-14T11:40:39;8.30;;;5.38;;
18647;SDS011;9453;50.294;18.644;2023-06-14T11:43:07;8.50;;;4.93;;
18647;SDS011;9453;50.294;18.644;2023-06-14T11:45:36;8.40;;;5.50;;
18647;SDS011;9453;50.294;18.644;2023-06-14T11:48:04;8.48;;;5.57;;
18647;SDS011;9453;50.294;18.644;2023-06-14T11:50:33;11.23;;;6.57;;
18647;SDS011;9453;50.294;18.644;2023-06-14T11:53:04;10.00;;;5.50;;
18647;SDS011;9453;50.294;18.644;2023-06-14T11:55:35;9.93;;;6.35;;
18647;SDS011;9453;50.294;18.644;2023-06-14T11:58:03;10.63;;;5.20;;
18647;SDS011;9453;50.294;18.644;2023-06-14T12:00:30;10.07;;;5.75;;
18647;SDS011;9453;50.294;18.644;2023-06-14T12:02:58;8.45;;;5.22;;
18647;SDS011;9453;50.294;18.644;2023-06-14T12:05:25;8.77;;;5.63;;
18647;SDS011;9453;50.294;18.644;2023-06-14T12:07:57;8.50;;;5.65;;
18647;SDS011;9453;50.294;18.644;2023-06-14T12:10:25;8.93;;;5.40;;
18647;SDS011;9453;50.294;18.644;2023-06-14T12:12:56;5.53;;;4.10;;
18647;SDS011;9453;50.294;18.644;2023-06-14T12:15:24;9.10;;;4.50;;
18647;SDS011;9453;50.294;18.644;2023-06-14T12:17:54;9.50;;;5.07;;
18647;SDS011;9453;50.294;18.644;2023-06-14T12:20:22;8.77;;;5.28;;
18647;SDS011;9453;50.294;18.644;2023-06-14T12:22:53;8.27;;;4.80;;
18647;SDS011;9453;50.294;18.644;2023-06-14T12:25:26;9.02;;;5.28;;
18647;SDS011;9453;50.294;18.644;2023-06-14T12:27:56;11.20;;;4.80;;
18647;SDS011;9453;50.294;18.644;2023-06-14T12:30:23;9.20;;;6.13;;
18647;SDS011;9453;50.294;18.644;2023-06-14T12:32:50;11.30;;;5.72;;
18647;SDS011;9453;50.294;18.644;2023-06-14T12:35:17;9.85;;;5.10;;
18647;SDS011;9453;50.294;18.644;2023-06-14T12:37:46;8.38;;;5.50;;
18647;SDS011;9453;50.294;18.644;2023-06-14T12:40:13;9.50;;;5.60;;
18647;SDS011;9453;50.294;18.644;2023-06-14T12:42:41;7.80;;;4.90;;
18647;SDS011;9453;50.294;18.644;2023-06-14T12:45:08;6.85;;;4.55;;
18647;SDS011;9453;50.294;18.644;2023-06-14T12:47:36;6.75;;;3.95;;
18647;SDS011;9453;50.294;18.644;2023-06-14T12:50:04;9.25;;;4.38;;
18647;SDS011;9453;50.294;18.644;2023-06-14T12:52:54;4.95;;;3.80;;
18647;SDS011;9453;50.294;18.644;2023-06-14T12:55:21;4.57;;;3.10;;
18647;SDS011;9453;50.294;18.644;2023-06-14T12:57:48;7.40;;;3.80;;
18647;SDS011;9453;50.294;18.644;2023-06-14T13:00:16;5.25;;;3.25;;
18647;SDS011;9453;50.294;18.644;2023-06-14T13:02:46;8.10;;;3.42;;
18647;SDS011;9453;50.294;18.644;2023-06-14T13:05:13;4.20;;;3.03;;
18647;SDS011;9453;50.294;18.644;2023-06-14T13:07:40;5.28;;;3.00;;
18647;SDS011;9453;50.294;18.644;2023-06-14T13:10:09;4.68;;;2.78;;
18647;SDS011;9453;50.294;18.644;2023-06-14T13:12:36;4.38;;;2.78;;
18647;SDS011;9453;50.294;18.644;2023-06-14T13:15:03;5.80;;;2.92;;
18647;SDS011;9453;50.294;18.644;2023-06-14T13:17:30;7.47;;;3.58;;
18647;SDS011;9453;50.294;18.644;2023-06-14T13:19:58;5.28;;;3.10;;
18647;SDS011;9453;50.294;18.644;2023-06-14T13:22:25;6.53;;;3.63;;
18647;SDS011;9453;50.294;18.644;2023-06-14T13:24:52;7.07;;;3.45;;
18647;SDS011;9453;50.294;18.644;2023-06-14T13:27:20;5.28;;;3.47;;
18647;SDS011;9453;50.294;18.644;2023-06-14T13:29:48;6.80;;;3.88;;
18647;SDS011;9453;50.294;18.644;2023-06-14T13:32:15;6.72;;;3.60;;
18647;SDS011;9453;50.294;18.644;2023-06-14T13:34:42;7.82;;;3.70;;
18647;SDS011;9453;50.294;18.644;2023-06-14T13:37:09;5.88;;;4.10;;
18647;SDS011;9453;50.294;18.644;2023-06-14T13:39:36;5.57;;;3.50;;
18647;SDS011;9453;50.294;18.644;2023-06-14T13:42:03;9.48;;;4.20;;
18647;SDS011;9453;50.294;18.644;2023-06-14T13:44:32;5.72;;;3.63;;
18647;SDS011;9453;50.294;18.644;2023-06-14T13:46:59;6.20;;;3.97;;
18647;SDS011;9453;50.294;18.644;2023-06-14T13:49:26;6.85;;;4.47;;
18647;SDS011;9453;50.294;18.644;2023-06-14T13:51:53;6.68;;;4.00;;
18647;SDS011;9453;50.294;18.644;2023-06-14T13:54:20;9.40;;;4.30;;
18647;SDS011;9453;50.294;18.644;2023-06-14T13:56:47;6.72;;;3.63;;
18647;SDS011;9453;50.294;18.644;2023-06-14T13:59:14;4.80;;;3.28;;
18647;SDS011;9453;50.294;18.644;2023-06-14T14:01:42;5.72;;;3.35;;
18647;SDS011;9453;50.294;18.644;2023-06-14T14:04:12;8.65;;;4.25;;
18647;SDS011;9453;50.294;18.644;2023-06-14T14:06:39;6.60;;;4.05;;
18647;SDS011;9453;50.294;18.644;2023-06-14T14:09:06;6.15;;;4.40;;
18647;SDS011;9453;50.294;18.644;2023-06-14T14:11:35;6.88;;;4.20;;
18647;SDS011;9453;50.294;18.644;2023-06-14T14:14:03;6.90;;;4.35;;
18647;SDS011;9453;50.294;18.644;2023-06-14T14:16:30;6.60;;;4.10;;
18647;SDS011;9453;50.294;18.644;2023-06-14T14:22:20;6.28;;;4.18;;
18647;SDS011;9453;50.294;18.644;2023-06-14T14:24:47;6.78;;;3.97;;
18647;SDS011;9453;50.294;18.644;2023-06-14T14:27:14;6.68;;;4.13;;
18647;SDS011;9453;50.294;18.644;2023-06-14T14:29:41;6.63;;;4.15;;
18647;SDS011;9453;50.294;18.644;2023-06-14T14:32:08;6.32;;;3.85;;
18647;SDS011;9453;50.294;18.644;2023-06-14T14:34:39;5.97;;;3.67;;
18647;SDS011;9453;50.294;18.644;2023-06-14T14:37:06;5.63;;;3.55;;
18647;SDS011;9453;50.294;18.644;2023-06-14T14:39:34;6.63;;;3.88;;
18647;SDS011;9453;50.294;18.644;2023-06-14T14:42:03;6.55;;;4.15;;
18647;SDS011;9453;50.294;18.644;2023-06-14T14:44:30;8.07;;;4.05;;
18647;SDS011;9453;50.294;18.644;2023-06-14T14:46:57;6.35;;;3.72;;
18647;SDS011;9453;50.294;18.644;2023-06-14T14:49:24;6.43;;;3.72;;
18647;SDS011;9453;50.294;18.644;2023-06-14T14:51:51;5.97;;;3.88;;
18647;SDS011;9453;50.294;18.644;2023-06-14T14:54:18;5.28;;;3.50;;
18647;SDS011;9453;50.294;18.644;2023-06-14T14:56:46;6.00;;;3.50;;
18647;SDS011;9453;50.294;18.644;2023-06-14T14:59:13;5.28;;;3.17;;
18647;SDS011;9453;50.294;18.644;2023-06-14T15:01:40;4.20;;;3.30;;
18647;SDS011;9453;50.294;18.644;2023-06-14T15:04:07;4.15;;;2.70;;
18647;SDS011;9453;50.294;18.644;2023-06-14T15:06:35;5.15;;;2.95;;
18647;SDS011;9453;50.294;18.644;2023-06-14T15:09:01;5.82;;;3.17;;
18647;SDS011;9453;50.294;18.644;2023-06-14T15:11:28;7.15;;;3.22;;
18647;SDS011;9453;50.294;18.644;2023-06-14T15:13:57;7.47;;;3.03;;
18647;SDS011;9453;50.294;18.644;2023-06-14T15:16:24;3.90;;;2.55;;
18647;SDS011;9453;50.294;18.644;2023-06-14T15:18:51;5.00;;;2.70;;
18647;SDS011;9453;50.294;18.644;2023-06-14T15:21:17;4.30;;;2.83;;
18647;SDS011;9453;50.294;18.644;2023-06-14T15:23:45;4.13;;;2.70;;
18647;SDS011;9453;50.294;18.644;2023-06-14T15:26:12;4.22;;;2.58;;
18647;SDS011;9453;50.294;18.644;2023-06-14T15:28:39;5.55;;;2.60;;
18647;SDS011;9453;50.294;18.644;2023-06-14T15:31:07;4.18;;;2.78;;
18647;SDS011;9453;50.294;18.644;2023-06-14T15:33:34;4.95;;;3.03;;
18647;SDS011;9453;50.294;18.644;2023-06-14T15:36:01;4.63;;;2.70;;
18647;SDS011;9453;50.294;18.644;2023-06-14T15:38:28;3.60;;;2.28;;
18647;SDS011;9453;50.294;18.644;2023-06-14T15:40:55;5.47;;;2.50;;
18647;SDS011;9453;50.294;18.644;2023-06-14T15:43:22;5.63;;;2.40;;
18647;SDS011;9453;50.294;18.644;2023-06-14T15:45:51;4.07;;;2.50;;
18647;SDS011;9453;50.294;18.644;2023-06-14T15:51:42;3.65;;;2.40;;
18647;SDS011;9453;50.294;18.644;2023-06-14T15:54:09;4.30;;;2.75;;
18647;SDS011;9453;50.294;18.644;2023-06-14T15:56:36;4.88;;;2.50;;
18647;SDS011;9453;50.294;18.644;2023-06-14T15:59:04;4.05;;;2.55;;
18647;SDS011;9453;50.294;18.644;2023-06-14T16:01:32;4.28;;;2.63;;
18647;SDS011;9453;50.294;18.644;2023-06-14T16:03:59;3.97;;;2.63;;
18647;SDS011;9453;50.294;18.644;2023-06-14T16:06:26;6.05;;;2.42;;
18647;SDS011;9453;50.294;18.644;2023-06-14T16:08:54;3.67;;;2.45;;
18647;SDS011;9453;50.294;18.644;2023-06-14T16:11:21;4.53;;;2.35;;
18647;SDS011;9453;50.294;18.644;2023-06-14T16:13:48;4.75;;;2.58;;
18647;SDS011;9453;50.294;18.644;2023-06-14T16:16:15;3.58;;;2.42;;
18647;SDS011;9453;50.294;18.644;2023-06-14T16:18:42;4.88;;;2.50;;
18647;SDS011;9453;50.294;18.644;2023-06-14T16:21:09;4.50;;;2.28;;
18647;SDS011;9453;50.294;18.644;2023-06-14T16:23:36;7.50;;;2.53;;
18647;SDS011;9453;50.294;18.644;2023-06-14T16:26:04;3.90;;;2.20;;
18647;SDS011;9453;50.294;18.644;2023-06-14T16:28:31;4.35;;;2.20;;
18647;SDS011;9453;50.294;18.644;2023-06-14T16:30:58;3.58;;;2.05;;
18647;SDS011;9453;50.294;18.644;2023-06-14T16:33:25;4.75;;;2.55;;
18647;SDS011;9453;50.294;18.644;2023-06-14T16:35:52;4.70;;;2.20;;
18647;SDS011;9453;50.294;18.644;2023-06-14T16:38:18;2.55;;;2.10;;
18647;SDS011;9453;50.294;18.644;2023-06-14T16:40:46;4.28;;;2.22;;
18647;SDS011;9453;50.294;18.644;2023-06-14T16:43:14;3.25;;;1.90;;
18647;SDS011;9453;50.294;18.644;2023-06-14T16:45:41;3.33;;;2.15;;
18647;SDS011;9453;50.294;18.644;2023-06-14T16:48:08;4.32;;;2.55;;
18647;SDS011;9453;50.294;18.644;2023-06-14T16:50:35;3.08;;;2.08;;
18647;SDS011;9453;50.294;18.644;2023-06-14T16:53:02;3.83;;;1.98;;
18647;SDS011;9453;50.294;18.644;2023-06-14T16:55:29;4.57;;;2.30;;
18647;SDS011;9453;50.294;18.644;2023-06-14T16:57:56;4.00;;;2.53;;
18647;SDS011;9453;50.294;18.644;2023-06-14T17:00:26;4.32;;;2.50;;
18647;SDS011;9453;50.294;18.644;2023-06-14T17:02:52;5.50;;;2.78;;
18647;SDS011;9453;50.294;18.644;2023-06-14T17:05:19;4.78;;;2.80;;
18647;SDS011;9453;50.294;18.644;2023-06-14T17:07:46;10.88;;;2.83;;
18647;SDS011;9453;50.294;18.644;2023-06-14T17:10:14;5.68;;;3.50;;
18647;SDS011;9453;50.294;18.644;2023-06-14T17:12:41;5.65;;;3.13;;
18647;SDS011;9453;50.294;18.644;2023-06-14T17:15:13;5.28;;;2.90;;
18647;SDS011;9453;50.294;18.644;2023-06-14T17:20:43;5.75;;;3.30;;
18647;SDS011;9453;50.294;18.644;2023-06-14T17:23:10;7.90;;;3.15;;
18647;SDS011;9453;50.294;18.644;2023-06-14T17:25:37;7.25;;;3.10;;
18647;SDS011;9453;50.294;18.644;2023-06-14T17:28:06;5.80;;;3.55;;
18647;SDS011;9453;50.294;18.644;2023-06-14T17:30:33;5.70;;;3.22;;
18647;SDS011;9453;50.294;18.644;2023-06-14T17:33:00;5.07;;;3.28;;
18647;SDS011;9453;50.294;18.644;2023-06-14T17:35:28;4.72;;;2.90;;
18647;SDS011;9453;50.294;18.644;2023-06-14T17:37:55;4.38;;;2.58;;
18647;SDS011;9453;50.294;18.644;2023-06-14T17:40:22;5.72;;;3.50;;
18647;SDS011;9453;50.294;18.644;2023-06-14T17:42:49;4.40;;;3.00;;
18647;SDS011;9453;50.294;18.644;2023-06-14T17:45:16;6.15;;;2.95;;
18647;SDS011;9453;50.294;18.644;2023-06-14T17:47:42;5.78;;;3.10;;
18647;SDS011;9453;50.294;18.644;2023-06-14T17:50:10;5.18;;;3.30;;
18647;SDS011;9453;50.294;18.644;2023-06-14T17:52:38;6.47;;;3.08;;
18647;SDS011;9453;50.294;18.644;2023-06-14T17:55:05;5.10;;;2.90;;
18647;SDS011;9453;50.294;18.644;2023-06-14T17:57:33;4.95;;;2.70;;
18647;SDS011;9453;50.294;18.644;2023-06-14T17:59:59;5.63;;;3.35;;
18647;SDS011;9453;50.294;18.644;2023-06-14T18:02:26;4.45;;;3.08;;
18647;SDS011;9453;50.294;18.644;2023-06-14T18:04:53;5.57;;;3.40;;
18647;SDS011;9453;50.294;18.644;2023-06-14T18:07:20;3.50;;;2.60;;
18647;SDS011;9453;50.294;18.644;2023-06-14T18:09:48;5.20;;;3.58;;
18647;SDS011;9453;50.294;18.644;2023-06-14T18:12:15;7.05;;;4.22;;
18647;SDS011;9453;50.294;18.644;2023-06-14T18:14:42;5.10;;;2.97;;
18647;SDS011;9453;50.294;18.644;2023-06-14T18:17:09;5.50;;;3.17;;
18647;SDS011;9453;50.294;18.644;2023-06-14T18:19:36;7.13;;;3.45;;
18647;SDS011;9453;50.294;18.644;2023-06-14T18:22:03;7.53;;;4.00;;
18647;SDS011;9453;50.294;18.644;2023-06-14T18:24:31;7.82;;;3.88;;
18647;SDS011;9453;50.294;18.644;2023-06-14T18:26:59;5.22;;;3.05;;
18647;SDS011;9453;50.294;18.644;2023-06-14T18:29:28;6.22;;;3.20;;
18647;SDS011;9453;50.294;18.644;2023-06-14T18:31:54;8.13;;;3.72;;
18647;SDS011;9453;50.294;18.644;2023-06-14T18:34:22;6.32;;;3.78;;
18647;SDS011;9453;50.294;18.644;2023-06-14T18:36:49;6.65;;;3.80;;
18647;SDS011;9453;50.294;18.644;2023-06-14T18:39:18;10.20;;;4.38;;
18647;SDS011;9453;50.294;18.644;2023-06-14T18:41:45;7.88;;;4.60;;
18647;SDS011;9453;50.294;18.644;2023-06-14T18:44:20;11.90;;;4.13;;
18647;SDS011;9453;50.294;18.644;2023-06-14T18:49:36;10.23;;;4.70;;
18647;SDS011;9453;50.294;18.644;2023-06-14T18:52:03;8.80;;;3.65;;
18647;SDS011;9453;50.294;18.644;2023-06-14T18:54:30;6.63;;;4.10;;
18647;SDS011;9453;50.294;18.644;2023-06-14T18:56:57;7.63;;;4.20;;
18647;SDS011;9453;50.294;18.644;2023-06-14T18:59:26;10.85;;;4.57;;
18647;SDS011;9453;50.294;18.644;2023-06-14T19:01:55;6.95;;;4.57;;
18647;SDS011;9453;50.294;18.644;2023-06-14T19:04:22;8.23;;;4.80;;
18647;SDS011;9453;50.294;18.644;2023-06-14T19:06:49;9.95;;;4.10;;